createdAt,value
2018-10-07T00:00:51.942Z,998.36
2018-10-07T00:01:51.853Z,998.32
2018-10-07T00:02:51.792Z,998.39
2018-10-07T00:03:51.766Z,998.40
2018-10-07T00:04:51.705Z,998.38
2018-10-07T00:05:51.678Z,998.41
2018-10-07T00:06:51.603Z,998.35
2018-10-07T00:07:51.559Z,998.43
2018-10-07T00:08:51.495Z,998.43
2018-10-07T00:09:51.443Z,998.46
2018-10-07T00:10:51.404Z,998.45
2018-10-07T00:11:51.380Z,998.47
2018-10-07T00:12:51.311Z,998.54
2018-10-07T00:13:51.250Z,998.50
2018-10-07T00:14:51.202Z,998.58
2018-10-07T00:15:51.152Z,998.58
2018-10-07T00:16:51.129Z,998.58
2018-10-07T00:17:51.055Z,998.58
2018-10-07T00:18:51.005Z,998.62
2018-10-07T00:19:50.962Z,998.65
2018-10-07T00:20:50.927Z,998.61
2018-10-07T00:21:50.888Z,998.65
2018-10-07T00:22:50.823Z,998.64
2018-10-07T00:23:50.759Z,998.62
2018-10-07T00:24:50.707Z,998.62
2018-10-07T00:25:50.670Z,998.64
2018-10-07T00:26:50.633Z,998.67
2018-10-07T00:27:50.563Z,998.68
2018-10-07T00:28:50.527Z,998.72
2018-10-07T00:29:50.483Z,998.68
2018-10-07T00:30:50.416Z,998.73
2018-10-07T00:31:50.393Z,998.76
2018-10-07T00:32:50.328Z,998.75
2018-10-07T00:33:50.264Z,998.73
2018-10-07T00:34:50.228Z,998.74
2018-10-07T00:35:50.174Z,998.74
2018-10-07T00:36:50.150Z,998.73
2018-10-07T00:37:50.074Z,998.81
2018-10-07T00:38:50.023Z,998.82
2018-10-07T00:39:49.980Z,998.89
2018-10-07T00:40:49.932Z,998.91
2018-10-07T00:41:49.905Z,998.94
2018-10-07T00:42:50.530Z,999.01
2018-10-07T00:43:49.777Z,999.04
2018-10-07T00:44:49.731Z,999.11
2018-10-07T00:45:49.704Z,999.14
2018-10-07T00:46:49.675Z,999.19
2018-10-07T00:47:49.622Z,999.22
2018-10-07T00:48:49.538Z,999.22
2018-10-07T00:49:49.484Z,999.25
2018-10-07T00:50:49.434Z,999.26
2018-10-07T00:51:49.411Z,999.29
2018-10-07T00:52:49.366Z,999.25
2018-10-07T00:53:49.338Z,999.30
2018-10-07T00:54:49.239Z,999.27
2018-10-07T00:55:49.191Z,999.24
2018-10-07T00:56:49.186Z,999.27
2018-10-07T00:57:49.108Z,999.27
2018-10-07T00:58:49.052Z,999.32
2018-10-07T00:59:48.995Z,999.31
2018-10-07T01:00:48.947Z,999.34
2018-10-07T01:01:48.927Z,999.37
2018-10-07T01:02:48.848Z,999.36
2018-10-07T01:03:48.793Z,999.37
2018-10-07T01:04:48.752Z,999.41
2018-10-07T01:05:48.703Z,999.40
2018-10-07T01:06:48.673Z,999.49
2018-10-07T01:07:48.600Z,999.51
2018-10-07T01:08:48.561Z,999.54
2018-10-07T01:09:48.498Z,999.61
2018-10-07T01:10:48.461Z,999.63
2018-10-07T01:11:48.442Z,999.68
2018-10-07T01:12:48.356Z,999.67
2018-10-07T01:13:48.309Z,999.71
2018-10-07T01:14:48.253Z,999.75
2018-10-07T01:15:48.220Z,999.78
2018-10-07T01:16:48.179Z,999.73
2018-10-07T01:17:48.108Z,999.70
2018-10-07T01:18:48.068Z,999.75
2018-10-07T01:19:48.030Z,999.74
2018-10-07T01:20:47.962Z,999.73
2018-10-07T01:21:47.972Z,999.73
2018-10-07T01:22:47.879Z,999.74
2018-10-07T01:23:47.807Z,999.79
2018-10-07T01:24:47.756Z,999.74
2018-10-07T01:25:47.708Z,999.83
2018-10-07T01:26:47.661Z,999.78
2018-10-07T01:27:47.642Z,999.88
2018-10-07T01:28:47.585Z,999.93
2018-10-07T01:29:47.512Z,999.97
2018-10-07T01:30:47.462Z,1000.05
2018-10-07T01:31:47.427Z,1000.00
2018-10-07T01:32:47.388Z,1000.05
2018-10-07T01:33:47.314Z,1000.10
2018-10-07T01:34:47.279Z,1000.12
2018-10-07T01:35:47.224Z,1000.16
2018-10-07T01:36:47.191Z,1000.18
2018-10-07T01:37:47.140Z,1000.16
2018-10-07T01:38:47.069Z,1000.22
2018-10-07T01:39:47.040Z,1000.27
2018-10-07T01:40:46.970Z,1000.22
2018-10-07T01:41:46.947Z,1000.15
2018-10-07T01:42:46.894Z,1000.14
2018-10-07T01:43:46.828Z,1000.12
2018-10-07T01:44:46.769Z,1000.15
2018-10-07T01:45:46.722Z,1000.13
2018-10-07T01:46:46.672Z,1000.18
2018-10-07T01:47:46.656Z,1000.20
2018-10-07T01:48:46.584Z,1000.24
2018-10-07T01:49:46.522Z,1000.28
2018-10-07T01:50:46.477Z,1000.25
2018-10-07T01:51:46.432Z,1000.26
2018-10-07T01:52:46.411Z,1000.27
2018-10-07T01:53:46.325Z,1000.24
2018-10-07T01:54:46.319Z,1000.30
2018-10-07T01:55:46.230Z,1000.21
2018-10-07T01:56:46.181Z,1000.21
2018-10-07T01:57:46.165Z,1000.26
2018-10-07T01:58:46.088Z,1000.31
2018-10-07T01:59:46.036Z,1000.29
2018-10-07T02:00:45.978Z,1000.37
2018-10-07T02:01:45.947Z,1000.40
2018-10-07T02:02:45.910Z,1000.43
2018-10-07T02:03:45.839Z,1000.44
2018-10-07T02:04:45.787Z,1000.45
2018-10-07T02:05:45.733Z,1000.48
2018-10-07T02:06:45.685Z,1000.51
2018-10-07T02:07:45.660Z,1000.48
2018-10-07T02:08:45.598Z,1000.49
2018-10-07T02:09:45.551Z,1000.55
2018-10-07T02:10:45.493Z,1000.51
2018-10-07T02:11:45.448Z,1000.54
2018-10-07T02:12:45.422Z,1000.53
2018-10-07T02:13:45.396Z,1000.49
2018-10-07T02:14:45.292Z,1000.50
2018-10-07T02:15:45.243Z,1000.51
2018-10-07T02:16:45.195Z,1000.53
2018-10-07T02:17:45.164Z,1000.51
2018-10-07T02:18:45.096Z,1000.48
2018-10-07T02:19:45.046Z,1000.45
2018-10-07T02:20:44.995Z,1000.47
2018-10-07T02:21:44.951Z,1000.49
2018-10-07T02:22:44.917Z,1000.52
2018-10-07T02:23:44.849Z,1000.49
2018-10-07T02:24:44.796Z,1000.54
2018-10-07T02:25:44.756Z,1000.56
2018-10-07T02:26:44.705Z,1000.66
2018-10-07T02:27:44.691Z,1000.67
2018-10-07T02:28:44.599Z,1000.70
2018-10-07T02:29:44.568Z,1000.78
2018-10-07T02:30:44.499Z,1000.85
2018-10-07T02:31:44.451Z,1000.90
2018-10-07T02:32:44.425Z,1000.96
2018-10-07T02:33:44.352Z,1000.99
2018-10-07T02:34:44.309Z,1000.99
2018-10-07T02:35:44.258Z,1001.01
2018-10-07T02:36:44.203Z,1000.98
2018-10-07T02:37:44.179Z,1001.02
2018-10-07T02:38:44.118Z,1000.97
2018-10-07T02:39:44.053Z,1001.03
2018-10-07T02:40:44.013Z,1001.04
2018-10-07T02:41:43.987Z,1001.06
2018-10-07T02:42:43.944Z,1001.00
2018-10-07T02:43:43.857Z,1001.03
2018-10-07T02:44:43.810Z,1000.98
2018-10-07T02:45:43.759Z,1001.02
2018-10-07T02:46:43.719Z,1000.98
2018-10-07T02:47:43.663Z,1001.01
2018-10-07T02:48:43.649Z,1001.07
2018-10-07T02:49:43.565Z,1001.12
2018-10-07T02:50:43.512Z,1001.18
2018-10-07T02:51:43.473Z,1001.21
2018-10-07T02:52:43.418Z,1001.33
2018-10-07T02:53:43.390Z,1001.37
2018-10-07T02:54:43.318Z,1001.37
2018-10-07T02:55:43.271Z,1001.57
2018-10-07T02:56:43.221Z,1001.61
2018-10-07T02:57:43.166Z,1001.65
2018-10-07T02:58:43.158Z,1001.79
2018-10-07T02:59:43.061Z,1001.88
2018-10-07T03:00:43.067Z,1001.89
2018-10-07T03:01:42.970Z,1001.88
2018-10-07T03:02:42.912Z,1001.99
2018-10-07T03:03:42.894Z,1001.98
2018-10-07T03:04:42.891Z,1001.99
2018-10-07T03:05:42.768Z,1002.02
2018-10-07T03:06:42.714Z,1002.03
2018-10-07T03:07:42.676Z,1002.04
2018-10-07T03:08:42.641Z,1002.05
2018-10-07T03:09:42.566Z,1002.05
2018-10-07T03:10:42.512Z,1001.92
2018-10-07T03:11:42.466Z,1001.87
2018-10-07T03:12:42.415Z,1001.78
2018-10-07T03:13:42.388Z,1001.85
2018-10-07T03:14:42.315Z,1001.87
2018-10-07T03:15:42.259Z,1001.73
2018-10-07T03:16:42.216Z,1001.78
2018-10-07T03:17:42.163Z,1001.81
2018-10-07T03:18:42.133Z,1001.85
2018-10-07T03:19:42.061Z,1002.00
2018-10-07T03:20:42.009Z,1002.02
2018-10-07T03:21:41.962Z,1002.07
2018-10-07T03:22:41.925Z,1002.14
2018-10-07T03:23:41.885Z,1002.20
2018-10-07T03:24:41.807Z,1002.19
2018-10-07T03:25:41.763Z,1002.20
2018-10-07T03:26:41.712Z,1002.22
2018-10-07T03:27:41.671Z,1002.17
2018-10-07T03:28:41.639Z,1002.19
2018-10-07T03:29:41.552Z,1002.17
2018-10-07T03:30:41.511Z,1002.21
2018-10-07T03:31:41.448Z,1002.30
2018-10-07T03:32:41.411Z,1002.33
2018-10-07T03:33:41.373Z,1002.33
2018-10-07T03:34:41.305Z,1002.45
2018-10-07T03:35:41.243Z,1002.52
2018-10-07T03:36:41.204Z,1002.57
2018-10-07T03:37:41.160Z,1002.66
2018-10-07T03:38:41.115Z,1002.74
2018-10-07T03:39:41.063Z,1002.89
2018-10-07T03:40:40.996Z,1002.79
2018-10-07T03:41:40.945Z,1002.73
2018-10-07T03:42:40.887Z,1002.82
2018-10-07T03:43:40.874Z,1002.76
2018-10-07T03:44:40.810Z,1002.74
2018-10-07T03:45:40.737Z,1002.81
2018-10-07T03:46:40.681Z,1002.83
2018-10-07T03:47:40.634Z,1002.81
2018-10-07T03:48:40.609Z,1002.86
2018-10-07T03:49:40.542Z,1002.86
2018-10-07T03:50:40.472Z,1002.84
2018-10-07T03:51:40.424Z,1002.87
2018-10-07T03:52:40.389Z,1002.87
2018-10-07T03:53:40.348Z,1002.93
2018-10-07T03:54:40.271Z,1002.93
2018-10-07T03:55:40.217Z,1002.99
2018-10-07T03:56:40.165Z,1002.87
2018-10-07T03:57:40.120Z,1002.95
2018-10-07T03:58:40.089Z,1002.93
2018-10-07T03:59:40.025Z,1003.02
2018-10-07T04:00:39.961Z,1003.11
2018-10-07T04:01:39.912Z,1003.05
2018-10-07T04:02:39.859Z,1003.14
2018-10-07T04:03:39.807Z,1003.16
2018-10-07T04:04:39.781Z,1003.21
2018-10-07T04:05:39.704Z,1003.18
2018-10-07T04:06:39.651Z,1003.18
2018-10-07T04:07:39.601Z,1003.14
2018-10-07T04:08:39.554Z,1003.20
2018-10-07T04:09:39.520Z,1003.22
2018-10-07T04:10:39.441Z,1003.16
2018-10-07T04:11:39.395Z,1003.14
2018-10-07T04:12:39.344Z,1003.20
2018-10-07T04:13:39.291Z,1003.21
2018-10-07T04:14:39.260Z,1003.18
2018-10-07T04:15:39.185Z,1003.22
2018-10-07T04:16:39.133Z,1003.19
2018-10-07T04:17:39.082Z,1003.16
2018-10-07T04:18:39.038Z,1003.16
2018-10-07T04:19:39.000Z,1003.17
2018-10-07T04:20:38.924Z,1003.22
2018-10-07T04:21:38.876Z,1003.19
2018-10-07T04:22:38.826Z,1003.21
2018-10-07T04:23:38.772Z,1003.22
2018-10-07T04:24:38.744Z,1003.23
2018-10-07T04:25:38.674Z,1003.27
2018-10-07T04:26:38.616Z,1003.29
2018-10-07T04:27:38.565Z,1003.32
2018-10-07T04:28:38.512Z,1003.35
2018-10-07T04:29:38.491Z,1003.31
2018-10-07T04:30:38.406Z,1003.32
2018-10-07T04:31:38.358Z,1003.33
2018-10-07T04:32:38.308Z,1003.36
2018-10-07T04:33:38.257Z,1003.36
2018-10-07T04:34:38.225Z,1003.35
2018-10-07T04:35:38.153Z,1003.38
2018-10-07T04:36:38.100Z,1003.34
2018-10-07T04:37:38.041Z,1003.39
2018-10-07T04:38:37.995Z,1003.41
2018-10-07T04:39:37.976Z,1003.39
2018-10-07T04:40:37.890Z,1003.45
2018-10-07T04:41:37.838Z,1003.43
2018-10-07T04:42:37.784Z,1003.39
2018-10-07T04:43:37.731Z,1003.36
2018-10-07T04:44:37.706Z,1003.32
2018-10-07T04:45:37.627Z,1003.34
2018-10-07T04:46:37.581Z,1003.25
2018-10-07T04:47:37.523Z,1003.28
2018-10-07T04:48:37.486Z,1003.25
2018-10-07T04:49:37.450Z,1003.21
2018-10-07T04:50:37.368Z,1003.27
2018-10-07T04:51:37.319Z,1003.19
2018-10-07T04:52:37.269Z,1003.23
2018-10-07T04:53:37.217Z,1003.23
2018-10-07T04:54:37.192Z,1003.23
2018-10-07T04:55:37.113Z,1003.28
2018-10-07T04:56:37.058Z,1003.29
2018-10-07T04:57:37.010Z,1003.29
2018-10-07T04:58:36.953Z,1003.32
2018-10-07T04:59:36.929Z,1003.42
2018-10-07T05:00:36.851Z,1003.45
2018-10-07T05:01:36.801Z,1003.49
2018-10-07T05:02:36.752Z,1003.49
2018-10-07T05:03:36.691Z,1003.51
2018-10-07T05:04:36.661Z,1003.53
2018-10-07T05:05:36.588Z,1003.47
2018-10-07T05:06:36.538Z,1003.50
2018-10-07T05:07:36.484Z,1003.51
2018-10-07T05:08:36.430Z,1003.58
2018-10-07T05:09:36.403Z,1003.54
2018-10-07T05:10:36.331Z,1003.58
2018-10-07T05:11:36.311Z,1003.63
2018-10-07T05:12:36.228Z,1003.63
2018-10-07T05:13:36.176Z,1003.67
2018-10-07T05:14:36.144Z,1003.68
2018-10-07T05:15:36.071Z,1003.73
2018-10-07T05:16:36.019Z,1003.74
2018-10-07T05:17:35.969Z,1003.77
2018-10-07T05:18:35.917Z,1003.84
2018-10-07T05:19:35.885Z,1003.87
2018-10-07T05:20:35.812Z,1003.90
2018-10-07T05:21:35.763Z,1003.85
2018-10-07T05:22:35.710Z,1003.89
2018-10-07T05:23:35.658Z,1003.91
2018-10-07T05:24:35.604Z,1003.92
2018-10-07T05:25:35.573Z,1003.90
2018-10-07T05:26:35.500Z,1003.96
2018-10-07T05:27:35.447Z,1004.00
2018-10-07T05:28:35.399Z,1004.02
2018-10-07T05:29:35.356Z,1004.05
2018-10-07T05:30:42.470Z,1004.08
2018-10-07T05:31:35.238Z,1004.05
2018-10-07T05:32:35.188Z,1004.05
2018-10-07T05:33:35.192Z,1004.09
2018-10-07T05:34:35.090Z,1004.19
2018-10-07T05:35:35.055Z,1004.21
2018-10-07T05:36:34.984Z,1004.31
2018-10-07T05:37:34.927Z,1004.26
2018-10-07T05:38:34.878Z,1004.31
2018-10-07T05:39:34.835Z,1004.29
2018-10-07T05:40:34.800Z,1004.28
2018-10-07T05:41:34.720Z,1004.30
2018-10-07T05:42:34.667Z,1004.33
2018-10-07T05:43:34.619Z,1004.34
2018-10-07T05:44:34.716Z,1004.33
2018-10-07T05:45:34.535Z,1004.36
2018-10-07T05:46:34.457Z,1004.33
2018-10-07T05:47:34.409Z,1004.40
2018-10-07T05:48:34.355Z,1004.40
2018-10-07T05:49:34.306Z,1004.49
2018-10-07T05:50:34.273Z,1004.50
2018-10-07T05:51:34.197Z,1004.53
2018-10-07T05:52:34.157Z,1004.53
2018-10-07T05:53:34.097Z,1004.58
2018-10-07T05:54:34.046Z,1004.63
2018-10-07T05:55:34.043Z,1004.57
2018-10-07T05:56:33.941Z,1004.60
2018-10-07T05:57:33.890Z,1004.63
2018-10-07T05:58:33.835Z,1004.67
2018-10-07T05:59:33.782Z,1004.63
2018-10-07T06:00:33.763Z,1004.63
2018-10-07T06:01:33.690Z,1004.71
2018-10-07T06:02:33.628Z,1004.76
2018-10-07T06:03:33.578Z,1004.77
2018-10-07T06:04:33.521Z,1004.77
2018-10-07T06:05:33.496Z,1004.80
2018-10-07T06:06:33.425Z,1004.83
2018-10-07T06:07:33.372Z,1004.87
2018-10-07T06:08:33.316Z,1004.91
2018-10-07T06:09:33.273Z,1004.93
2018-10-07T06:10:33.244Z,1004.91
2018-10-07T06:11:33.158Z,1004.95
2018-10-07T06:12:33.109Z,1005.03
2018-10-07T06:13:33.055Z,1005.04
2018-10-07T06:14:33.013Z,1005.07
2018-10-07T06:15:32.989Z,1005.09
2018-10-07T06:16:32.922Z,1005.07
2018-10-07T06:17:32.855Z,1005.12
2018-10-07T06:18:32.798Z,1005.09
2018-10-07T06:19:32.745Z,1005.15
2018-10-07T06:20:32.723Z,1005.12
2018-10-07T06:21:32.647Z,1005.11
2018-10-07T06:22:32.583Z,1005.12
2018-10-07T06:23:32.540Z,1005.09
2018-10-07T06:24:32.486Z,1005.14
2018-10-07T06:25:32.468Z,1005.12
2018-10-07T06:26:32.376Z,1005.14
2018-10-07T06:27:32.326Z,1005.13
2018-10-07T06:28:32.276Z,1005.20
2018-10-07T06:29:32.222Z,1005.27
2018-10-07T06:30:32.212Z,1005.33
2018-10-07T06:31:32.147Z,1005.35
2018-10-07T06:32:32.061Z,1005.36
2018-10-07T06:33:32.021Z,1005.36
2018-10-07T06:34:31.960Z,1005.41
2018-10-07T06:35:31.921Z,1005.40
2018-10-07T06:36:31.910Z,1005.42
2018-10-07T06:37:31.805Z,1005.46
2018-10-07T06:38:31.759Z,1005.45
2018-10-07T06:39:31.764Z,1005.49
2018-10-07T06:40:31.652Z,1005.51
2018-10-07T06:41:31.634Z,1005.60
2018-10-07T06:42:31.540Z,1005.56
2018-10-07T06:43:31.489Z,1005.56
2018-10-07T06:44:31.444Z,1005.56
2018-10-07T06:45:31.443Z,1005.62
2018-10-07T06:46:31.371Z,1005.68
2018-10-07T06:47:31.282Z,1005.71
2018-10-07T06:48:31.240Z,1005.77
2018-10-07T06:49:31.179Z,1005.79
2018-10-07T06:50:31.127Z,1005.82
2018-10-07T06:51:31.094Z,1005.89
2018-10-07T06:52:31.020Z,1005.87
2018-10-07T06:53:30.969Z,1005.93
2018-10-07T06:54:30.920Z,1005.94
2018-10-07T06:55:30.864Z,1005.97
2018-10-07T06:56:30.838Z,1005.92
2018-10-07T06:57:30.761Z,1006.03
2018-10-07T06:58:30.711Z,1005.98
2018-10-07T06:59:30.726Z,1006.03
2018-10-07T07:00:30.627Z,1006.14
2018-10-07T07:01:30.578Z,1006.11
2018-10-07T07:02:30.505Z,1006.20
2018-10-07T07:03:30.452Z,1006.25
2018-10-07T07:04:30.395Z,1006.27
2018-10-07T07:05:30.348Z,1006.32
2018-10-07T07:06:30.345Z,1006.26
2018-10-07T07:07:30.246Z,1006.30
2018-10-07T07:08:30.201Z,1006.36
2018-10-07T07:09:30.156Z,1006.40
2018-10-07T07:10:30.086Z,1006.41
2018-10-07T07:11:30.061Z,1006.45
2018-10-07T07:12:29.988Z,1006.42
2018-10-07T07:13:29.933Z,1006.48
2018-10-07T07:14:29.889Z,1006.39
2018-10-07T07:15:29.834Z,1006.44
2018-10-07T07:16:29.803Z,1006.38
2018-10-07T07:17:29.729Z,1006.39
2018-10-07T07:18:29.675Z,1006.38
2018-10-07T07:19:29.624Z,1006.36
2018-10-07T07:20:29.576Z,1006.37
2018-10-07T07:21:29.554Z,1006.50
2018-10-07T07:22:29.476Z,1006.45
2018-10-07T07:23:29.421Z,1006.34
2018-10-07T07:24:29.365Z,1006.37
2018-10-07T07:25:29.321Z,1006.37
2018-10-07T07:26:29.288Z,1006.38
2018-10-07T07:27:29.219Z,1006.41
2018-10-07T07:28:29.161Z,1006.43
2018-10-07T07:29:29.119Z,1006.39
2018-10-07T07:30:29.062Z,1006.35
2018-10-07T07:31:29.102Z,1006.34
2018-10-07T07:32:28.966Z,1006.38
2018-10-07T07:33:28.905Z,1006.45
2018-10-07T07:34:28.852Z,1006.29
2018-10-07T07:35:28.807Z,1006.40
2018-10-07T07:36:28.774Z,1006.47
2018-10-07T07:37:28.698Z,1006.42
2018-10-07T07:38:28.646Z,1006.46
2018-10-07T07:39:28.595Z,1006.45
2018-10-07T07:40:28.549Z,1006.52
2018-10-07T07:41:28.491Z,1006.53
2018-10-07T07:42:28.538Z,1006.53
2018-10-07T07:43:28.394Z,1006.49
2018-10-07T07:44:28.339Z,1006.48
2018-10-07T07:45:28.283Z,1006.58
2018-10-07T07:46:28.229Z,1006.51
2018-10-07T07:47:28.216Z,1006.58
2018-10-07T07:48:28.128Z,1006.61
2018-10-07T07:49:28.079Z,1006.70
2018-10-07T07:50:28.035Z,1006.67
2018-10-07T07:51:27.978Z,1006.64
2018-10-07T07:52:27.965Z,1006.67
2018-10-07T07:53:27.865Z,1006.64
2018-10-07T07:54:27.821Z,1006.67
2018-10-07T07:55:27.775Z,1006.67
2018-10-07T07:56:27.712Z,1006.71
2018-10-07T07:57:27.692Z,1006.76
2018-10-07T07:58:27.611Z,1006.75
2018-10-07T07:59:27.561Z,1006.77
2018-10-07T08:00:27.509Z,1006.77
2018-10-07T08:01:27.459Z,1006.81
2018-10-07T08:02:27.435Z,1006.78
2018-10-07T08:03:27.352Z,1006.77
2018-10-07T08:04:27.302Z,1006.78
2018-10-07T08:05:27.248Z,1006.79
2018-10-07T08:06:27.203Z,1006.84
2018-10-07T08:07:27.176Z,1006.79
2018-10-07T08:08:27.097Z,1006.82
2018-10-07T08:09:27.054Z,1006.89
2018-10-07T08:10:26.994Z,1006.85
2018-10-07T08:11:26.942Z,1006.88
2018-10-07T08:12:26.919Z,1006.94
2018-10-07T08:13:26.850Z,1006.88
2018-10-07T08:14:26.791Z,1006.85
2018-10-07T08:15:26.743Z,1006.94
2018-10-07T08:16:26.690Z,1006.92
2018-10-07T08:17:26.722Z,1006.91
2018-10-07T08:18:26.597Z,1006.93
2018-10-07T08:19:26.554Z,1006.99
2018-10-07T08:20:26.481Z,1006.97
2018-10-07T08:21:26.434Z,1006.95
2018-10-07T08:22:26.393Z,1006.96
2018-10-07T08:23:26.344Z,1007.00
2018-10-07T08:24:26.277Z,1007.00
2018-10-07T08:25:26.221Z,1006.98
2018-10-07T08:26:26.191Z,1006.99
2018-10-07T08:27:26.145Z,1006.92
2018-10-07T08:28:26.089Z,1006.95
2018-10-07T08:29:26.087Z,1007.07
2018-10-07T08:30:25.970Z,1007.10
2018-10-07T08:31:25.917Z,1007.15
2018-10-07T08:32:25.892Z,1007.18
2018-10-07T08:33:25.818Z,1007.11
2018-10-07T08:34:25.760Z,1007.25
2018-10-07T08:35:25.726Z,1007.22
2018-10-07T08:36:25.672Z,1007.22
2018-10-07T08:37:25.631Z,1007.31
2018-10-07T08:38:25.563Z,1007.33
2018-10-07T08:39:25.512Z,1007.30
2018-10-07T08:40:25.456Z,1007.32
2018-10-07T08:41:25.421Z,1007.33
2018-10-07T08:42:25.385Z,1007.38
2018-10-07T08:43:25.300Z,1007.35
2018-10-07T08:44:25.299Z,1007.39
2018-10-07T08:45:25.208Z,1007.48
2018-10-07T08:46:25.151Z,1007.46
2018-10-07T08:47:25.123Z,1007.43
2018-10-07T08:48:25.060Z,1007.55
2018-10-07T08:49:24.995Z,1007.50
2018-10-07T08:50:24.948Z,1007.50
2018-10-07T08:51:24.892Z,1007.59
2018-10-07T08:52:24.872Z,1007.69
2018-10-07T08:53:24.793Z,1007.65
2018-10-07T08:54:24.746Z,1007.73
2018-10-07T08:55:24.693Z,1007.77
2018-10-07T08:56:24.680Z,1007.84
2018-10-07T08:57:24.619Z,1007.85
2018-10-07T08:58:24.546Z,1007.89
2018-10-07T08:59:24.487Z,1007.92
2018-10-07T09:00:24.441Z,1007.91
2018-10-07T09:01:24.392Z,1008.01
2018-10-07T09:02:24.359Z,1007.96
2018-10-07T09:03:24.287Z,1008.04
2018-10-07T09:04:24.240Z,1008.05
2018-10-07T09:05:24.186Z,1008.01
2018-10-07T09:06:24.149Z,1008.04
2018-10-07T09:07:24.166Z,1008.09
2018-10-07T09:08:24.038Z,1008.07
2018-10-07T09:09:24.001Z,1008.10
2018-10-07T09:10:23.976Z,1008.06
2018-10-07T09:11:23.886Z,1008.14
2018-10-07T09:12:23.841Z,1008.14
2018-10-07T09:13:23.880Z,1008.08
2018-10-07T09:14:23.857Z,1008.22
2018-10-07T09:15:23.754Z,1008.18
2018-10-07T09:16:23.629Z,1008.23
2018-10-07T09:17:23.593Z,1008.21
2018-10-07T09:18:23.602Z,1008.22
2018-10-07T09:19:23.718Z,1008.16
2018-10-07T09:20:23.425Z,1008.18
2018-10-07T09:21:23.374Z,1008.18
2018-10-07T09:22:23.325Z,1008.17
2018-10-07T09:23:23.300Z,1008.26
2018-10-07T09:24:23.224Z,1008.19
2018-10-07T09:25:23.173Z,1008.20
2018-10-07T09:26:23.130Z,1008.20
2018-10-07T09:27:23.114Z,1008.17
2018-10-07T09:28:23.054Z,1008.22
2018-10-07T09:29:22.978Z,1008.22
2018-10-07T09:30:22.936Z,1008.20
2018-10-07T09:31:22.868Z,1008.23
2018-10-07T09:32:22.829Z,1008.26
2018-10-07T09:33:22.816Z,1008.22
2018-10-07T09:34:22.718Z,1008.23
2018-10-07T09:35:22.671Z,1008.24
2018-10-07T09:36:22.631Z,1008.23
2018-10-07T09:37:22.573Z,1008.22
2018-10-07T09:38:22.549Z,1008.23
2018-10-07T09:39:22.536Z,1008.24
2018-10-07T09:40:22.427Z,1008.27
2018-10-07T09:41:22.372Z,1008.24
2018-10-07T09:42:22.337Z,1008.30
2018-10-07T09:43:23.254Z,1008.27
2018-10-07T09:44:22.224Z,1008.29
2018-10-07T09:45:22.186Z,1008.33
2018-10-07T09:46:22.127Z,1008.29
2018-10-07T09:47:22.074Z,1008.36
2018-10-07T09:48:22.041Z,1008.35
2018-10-07T09:49:21.968Z,1008.36
2018-10-07T09:50:21.911Z,1008.36
2018-10-07T09:51:21.861Z,1008.37
2018-10-07T09:52:21.869Z,1008.33
2018-10-07T09:53:21.808Z,1008.32
2018-10-07T09:54:21.706Z,1008.33
2018-10-07T09:55:21.658Z,1008.34
2018-10-07T09:56:21.610Z,1008.42
2018-10-07T09:57:21.555Z,1008.38
2018-10-07T09:58:21.535Z,1008.36
2018-10-07T09:59:21.456Z,1008.43
2018-10-07T10:00:21.403Z,1008.41
2018-10-07T10:01:21.436Z,1008.41
2018-10-07T10:02:21.315Z,1008.39
2018-10-07T10:03:21.287Z,1008.42
2018-10-07T10:04:21.314Z,1008.44
2018-10-07T10:05:21.154Z,1008.44
2018-10-07T10:06:21.106Z,1008.54
2018-10-07T10:07:21.065Z,1008.51
2018-10-07T10:08:21.027Z,1008.54
2018-10-07T10:09:20.952Z,1008.53
2018-10-07T10:10:20.896Z,1008.51
2018-10-07T10:11:21.015Z,1008.48
2018-10-07T10:12:20.800Z,1008.51
2018-10-07T10:13:20.782Z,1008.50
2018-10-07T10:14:20.764Z,1008.54
2018-10-07T10:15:20.651Z,1008.52
2018-10-07T10:16:20.595Z,1008.56
2018-10-07T10:17:20.548Z,1008.44
2018-10-07T10:18:20.513Z,1008.46
2018-10-07T10:19:20.443Z,1008.50
2018-10-07T10:20:20.393Z,1008.48
2018-10-07T10:21:20.346Z,1008.50
2018-10-07T10:22:20.299Z,1008.50
2018-10-07T10:23:20.288Z,1008.55
2018-10-07T10:24:20.197Z,1008.58
2018-10-07T10:25:20.145Z,1008.66
2018-10-07T10:26:20.094Z,1008.65
2018-10-07T10:27:20.040Z,1008.61
2018-10-07T10:28:20.017Z,1008.62
2018-10-07T10:29:19.951Z,1008.64
2018-10-07T10:30:19.926Z,1008.58
2018-10-07T10:31:19.855Z,1008.62
2018-10-07T10:32:19.792Z,1008.58
2018-10-07T10:33:19.784Z,1008.61
2018-10-07T10:34:19.686Z,1008.51
2018-10-07T10:35:19.638Z,1008.61
2018-10-07T10:36:19.585Z,1008.63
2018-10-07T10:37:19.537Z,1008.55
2018-10-07T10:38:19.480Z,1008.61
2018-10-07T10:39:19.465Z,1008.64
2018-10-07T10:40:19.386Z,1008.63
2018-10-07T10:41:19.339Z,1008.62
2018-10-07T10:42:19.290Z,1008.62
2018-10-07T10:43:19.232Z,1008.65
2018-10-07T10:44:19.208Z,1008.63
2018-10-07T10:45:19.136Z,1008.61
2018-10-07T10:46:19.082Z,1008.63
2018-10-07T10:47:19.048Z,1008.63
2018-10-07T10:48:18.988Z,1008.67
2018-10-07T10:49:18.952Z,1008.66
2018-10-07T10:50:18.919Z,1008.71
2018-10-07T10:51:18.829Z,1008.73
2018-10-07T10:52:18.780Z,1008.72
2018-10-07T10:53:18.740Z,1008.74
2018-10-07T10:54:18.710Z,1008.76
2018-10-07T10:55:19.341Z,1008.73
2018-10-07T10:56:18.587Z,1008.72
2018-10-07T10:57:18.529Z,1008.67
2018-10-07T10:58:18.477Z,1008.69
2018-10-07T10:59:18.454Z,1008.68
2018-10-07T11:00:18.382Z,1008.74
2018-10-07T11:01:18.326Z,1008.70
2018-10-07T11:02:18.288Z,1008.68
2018-10-07T11:03:18.227Z,1008.75
2018-10-07T11:04:18.227Z,1008.70
2018-10-07T11:05:18.128Z,1008.72
2018-10-07T11:06:18.078Z,1008.76
2018-10-07T11:07:18.035Z,1008.70
2018-10-07T11:08:17.977Z,1008.70
2018-10-07T11:09:17.981Z,1008.72
2018-10-07T11:10:17.878Z,1008.72
2018-10-07T11:11:17.839Z,1008.79
2018-10-07T11:12:17.784Z,1008.83
2018-10-07T11:13:17.723Z,1008.79
2018-10-07T11:14:17.712Z,1008.80
2018-10-07T11:15:17.642Z,1008.83
2018-10-07T11:16:17.583Z,1008.84
2018-10-07T11:17:17.524Z,1008.85
2018-10-07T11:18:17.475Z,1008.82
2018-10-07T11:19:17.429Z,1008.86
2018-10-07T11:20:17.394Z,1008.89
2018-10-07T11:21:17.325Z,1008.84
2018-10-07T11:22:17.284Z,1008.80
2018-10-07T11:23:17.220Z,1008.82
2018-10-07T11:24:17.172Z,1008.83
2018-10-07T11:25:17.142Z,1008.84
2018-10-07T11:26:17.130Z,1008.86
2018-10-07T11:27:17.018Z,1008.87
2018-10-07T11:28:16.978Z,1008.84
2018-10-07T11:29:16.922Z,1008.78
2018-10-07T11:30:16.891Z,1008.82
2018-10-07T11:31:16.819Z,1008.83
2018-10-07T11:32:16.766Z,1008.81
2018-10-07T11:33:16.726Z,1008.67
2018-10-07T11:34:16.668Z,1008.70
2018-10-07T11:35:16.643Z,1008.66
2018-10-07T11:36:16.569Z,1008.69
2018-10-07T11:37:16.528Z,1008.65
2018-10-07T11:38:16.468Z,1008.65
2018-10-07T11:39:16.418Z,1008.67
2018-10-07T11:40:16.392Z,1008.69
2018-10-07T11:41:16.316Z,1008.69
2018-10-07T11:42:16.282Z,1008.67
2018-10-07T11:43:16.237Z,1008.64
2018-10-07T11:44:16.171Z,1008.67
2018-10-07T11:45:16.139Z,1008.59
2018-10-07T11:46:16.071Z,1008.54
2018-10-07T11:47:16.020Z,1008.58
2018-10-07T11:48:15.972Z,1008.57
2018-10-07T11:49:15.934Z,1008.62
2018-10-07T11:50:15.895Z,1008.60
2018-10-07T11:51:15.818Z,1008.66
2018-10-07T11:52:15.771Z,1008.63
2018-10-07T11:53:15.721Z,1008.67
2018-10-07T11:54:15.672Z,1008.66
2018-10-07T11:55:15.656Z,1008.72
2018-10-07T11:56:15.566Z,1008.65
2018-10-07T11:57:15.518Z,1008.68
2018-10-07T11:58:15.469Z,1008.66
2018-10-07T11:59:15.429Z,1008.68
2018-10-07T12:00:15.397Z,1008.69
2018-10-07T12:01:15.325Z,1008.64
2018-10-07T12:02:15.325Z,1008.63
2018-10-07T12:03:15.231Z,1008.62
2018-10-07T12:04:15.171Z,1008.55
2018-10-07T12:05:15.148Z,1008.57
2018-10-07T12:06:15.066Z,1008.53
2018-10-07T12:07:15.019Z,1008.60
2018-10-07T12:08:14.964Z,1008.61